Flight Track Log - Related Links

Times and Time Zones

All times are in EDT time to prevent confusion due to time zone crossing. See the N425CD flight status page for this flight to view local times or setup timezone preferences in your user account.

Time Position Orientation Groundspeed Altitude Reporting Facility
EDT Latitude Longitude Course Direction KTS MPH feet Rate Location/Type
Fri 11:43:48 AM 25.8561 -79.2836 351° North 106 122 1,800  Level Miami Center
Fri 11:44:32 AM 25.8789 -79.2875 351° North 118 136 2,100 378 Climbing Miami Center
Fri 11:45:39 AM 25.9067 -79.3125 321° Northwest 124 143 2,500 246 Climbing Miami Center
Fri 11:46:34 AM 25.9297 -79.3489 305° West 163 188 2,600 52 Climbing Miami Center
Fri 11:47:35 AM 25.9506 -79.3872 301° West 148 170 2,600  Level Miami Center
Fri 11:48:30 AM 25.9694 -79.4233 300° West 143 165 2,600  Level Miami Center
Fri 11:48:41 AM 25.9714 -79.4256 314° West 144 166 2,600  Level Miami Center
Fri 11:49:31 AM 25.9903 -79.4619 300° West 140 161 2,600  Level Miami Center
Fri 11:49:43 AM 25.9922 -79.4631 333° Northwest 145 167 2,600  Level Miami Center
Fri 11:50:38 AM 26.0131 -79.5028 300° West 145 167 2,600  Level Miami Center
Fri 11:51:39 AM 26.0358 -79.5439 302° West 146 168 2,600  Level Miami Center
Fri 11:52:41 AM 26.0525 -79.5844 295° West 145 167 2,600  Level Miami Center
Fri 11:53:36 AM 26.0669 -79.6225 293° West 144 166 2,600  Level Miami Center
Fri 11:54:37 AM 26.0833 -79.6633 294° West 145 167 2,600  Level Miami Center
Fri 11:55:38 AM 26.0997 -79.7061 293° West 146 168 2,600  Level Miami Center
Fri 11:56:39 AM 26.1158 -79.7514 292° West 146 168 2,600  Level Miami Center
Fri 11:57:40 AM 26.1303 -79.7919 292° West 145 167 2,600 -49 Level Miami Center
Fri 11:58:42 AM 26.1444 -79.8347 290° West 148 170 2,500 -93 Descending Miami Center
Fri 11:59:49 AM 26.1581 -79.8867 286° West 151 174 2,400 -141 Descending Miami Center
Fri 12:00:50 PM 26.1636 -79.9336 278° West 151 174 2,200 -344 Descending Miami Center
Fri 12:01:51 PM 26.1692 -79.9803 278° West 157 181 1,700 -466 Descending Miami Center
Fri 12:02:46 PM 26.1725 -80.0247 275° West 155 178 1,300 -310 Descending Miami Center
Fri 12:03:47 PM 26.1781 -80.0739 277° West 145 167 1,100 -98 Descending Miami Center
Fri 12:04:48 PM 26.1753 -80.1178 266° West 143 165 1,100 -47 Level Miami Center
Fri 12:05:56 PM 26.1722 -80.1686 266° West 150 173 1,000 47 Descending Miami Center
Fri 12:06:57 PM 26.1692 -80.2147 266° West 143 165 1,200 49 Climbing Miami Center
Fri 12:07:58 PM 26.1728 -80.2569 275° West 135 155 1,100 -207 Descending Miami Center
Fri 12:08:53 PM 26.1928 -80.2422 33° Northeast 144 166 800 -310 Descending Miami Center
Fri 12:09:54 PM 26.1950 -80.2053 86° East 108 124 500 -295 Descending Miami Center
Fri 12:11:00 PM 26.1973 -80.1707 109° East  Level Estimated
Fri 12:18:00 PM 26.1973 -80.1707 283° West  Level Estimated

Login

Don't have an account? Register now (free) for customized features, flight alerts, and more!